Time;durP1;ratioP1;P1;durP2;ratioP2;P2;SDS_P1;SDS_P2;PMS_P1;PMS_P2;Temp;Humidity;BMP_temperature;BMP_pressure;BME280_temperature;BME280_humidity;BME280_pressure;Samples;Min_cycle;Max_cycle;Signal;HPM_P1;HPM_P2
2021/06/20 00:01:17;;;;;;;10.63;6.78;;;;;;;20.57;68.46;99738.59;5087938;28;20423;-22
2021/06/20 00:03:43;;;;;;;12.23;6.22;;;;;;;20.54;68.19;99717.50;5087892;28;20403;-22
2021/06/20 00:06:24;;;;;;;11.07;6.15;;;;;;;20.38;69.29;99747.50;5087740;28;20028;-23
2021/06/20 00:08:49;;;;;;;9.68;5.88;;;;;;;20.38;69.45;99741.28;5087728;28;20050;-22
2021/06/20 00:11:15;;;;;;;13.95;5.88;;;;;;;20.20;69.71;99724.72;5087874;28;20479;-22
2021/06/20 00:13:40;;;;;;;9.55;5.57;;;;;;;19.54;72.78;99736.31;5087763;28;20031;-22
2021/06/20 00:16:05;;;;;;;10.23;5.90;;;;;;;19.91;71.03;99722.13;5087626;28;20043;-22
2021/06/20 00:18:31;;;;;;;7.78;5.47;;;;;;;19.76;72.24;99736.66;5069464;28;20048;-22
2021/06/20 00:20:56;;;;;;;11.32;5.97;;;;;;;19.48;73.37;99730.16;5087731;28;20081;-22
2021/06/20 00:23:22;;;;;;;12.35;5.75;;;;;;;19.26;73.86;99712.50;5087748;28;20035;-22
2021/06/20 00:25:47;;;;;;;14.88;5.25;;;;;;;19.06;74.46;99728.91;5087810;28;20024;-22
2021/06/20 00:28:13;;;;;;;13.18;6.40;;;;;;;18.93;75.01;99729.56;5087704;28;20047;-22
2021/06/20 00:30:39;;;;;;;14.48;5.68;;;;;;;19.01;74.96;99718.94;5087768;28;20407;-22
2021/06/20 00:33:05;;;;;;;15.68;6.03;;;;;;;19.09;74.54;99717.53;5087667;28;20036;-23
2021/06/20 00:35:31;;;;;;;18.60;6.20;;;;;;;19.19;74.32;99722.84;5087812;28;20032;-22
2021/06/20 00:37:56;;;;;;;15.40;5.43;;;;;;;19.03;74.87;99737.59;5087901;28;20028;-22
2021/06/20 00:40:22;;;;;;;13.23;5.35;;;;;;;19.25;73.72;99716.31;5087285;28;20024;-22
2021/06/20 00:42:48;;;;;;;14.93;5.78;;;;;;;19.35;73.70;99742.44;5069542;28;20024;-22
2021/06/20 00:45:14;;;;;;;18.88;6.05;;;;;;;19.14;74.22;99736.41;5087663;28;20032;-22
2021/06/20 00:47:40;;;;;;;15.82;6.05;;;;;;;19.12;74.24;99733.19;5087550;28;20160;-22
2021/06/20 00:50:06;;;;;;;14.88;5.65;;;;;;;18.92;74.97;99744.16;5087065;28;20080;-23
2021/06/20 00:52:32;;;;;;;14.23;5.40;;;;;;;18.99;75.00;99745.44;5087405;28;20111;-22
2021/06/20 00:54:58;;;;;;;15.27;6.15;;;;;;;19.25;73.92;99732.53;5053000;28;20027;-22
2021/06/20 00:57:23;;;;;;;13.77;5.88;;;;;;;19.55;72.69;99751.44;5087262;28;20043;-22
2021/06/20 00:59:49;;;;;;;17.30;5.40;;;;;;;19.18;74.22;99742.84;5087499;28;20398;-22
2021/06/20 01:02:15;;;;;;;15.82;5.82;;;;;;;19.83;71.65;99747.13;5087181;28;20081;-22
2021/06/20 01:04:45;;;;;;;12.52;5.75;;;;;;;19.55;71.99;99738.72;5087303;28;20024;-22
2021/06/20 01:07:13;;;;;;;14.80;6.40;;;;;;;19.71;72.06;99749.41;5069653;28;20032;-22
2021/06/20 01:09:38;;;;;;;13.07;5.63;;;;;;;19.80;71.57;99758.53;5069671;28;20024;-22
2021/06/20 01:12:04;;;;;;;11.02;5.50;;;;;;;19.65;72.54;99762.16;5068923;28;20380;-22
2021/06/20 01:14:30;;;;;;;14.13;5.18;;;;;;;19.73;71.83;99766.16;5087326;28;20028;-22
2021/06/20 01:16:55;;;;;;;19.25;6.13;;;;;;;20.07;70.57;99764.16;5052357;28;20043;-22
2021/06/20 01:19:21;;;;;;;11.07;5.03;;;;;;;19.49;72.93;99761.50;5089282;28;20052;-22
2021/06/20 01:21:47;;;;;;;11.43;5.70;;;;;;;19.55;73.18;99759.56;5090649;28;20016;-22
2021/06/20 01:24:13;;;;;;;13.13;6.18;;;;;;;19.84;71.85;99767.69;5090515;28;20082;-22
2021/06/20 01:26:39;;;;;;;12.27;5.78;;;;;;;19.44;72.94;99750.75;5072495;28;20442;-22
2021/06/20 01:29:07;;;;;;;14.57;5.80;;;;;;;19.61;72.16;99753.78;5090880;28;20043;-23
2021/06/20 01:31:34;;;;;;;9.82;5.50;;;;;;;19.80;72.20;99766.66;5090859;28;20506;-22
2021/06/20 01:34:00;;;;;;;15.40;5.60;;;;;;;20.14;70.52;99757.56;5090595;28;20039;-23
2021/06/20 01:36:25;;;;;;;13.60;6.45;;;;;;;20.27;70.01;99757.69;5090898;28;20039;-23
2021/06/20 01:38:51;;;;;;;10.82;5.18;;;;;;;20.11;70.21;99761.69;5072845;28;20074;-22
2021/06/20 01:41:16;;;;;;;14.82;6.40;;;;;;;20.43;68.94;99761.00;5090644;28;20040;-22
2021/06/20 01:43:42;;;;;;;10.30;5.20;;;;;;;20.45;68.54;99766.94;5090553;28;20119;-22
2021/06/20 01:46:07;;;;;;;12.93;6.18;;;;;;;20.32;69.28;99758.72;5090217;28;20724;-22
2021/06/20 01:48:33;;;;;;;9.40;5.53;;;;;;;20.32;69.48;99758.72;5090274;28;20040;-22
2021/06/20 01:50:58;;;;;;;9.95;5.63;;;;;;;20.19;69.39;99752.13;5090556;28;20102;-23
2021/06/20 01:53:24;;;;;;;10.95;5.00;;;;;;;19.84;69.14;99752.25;5090380;28;20032;-22
2021/06/20 01:55:49;;;;;;;8.32;4.90;;;;;;;19.76;69.50;99757.50;5090531;28;20028;-22
2021/06/20 01:58:16;;;;;;;10.88;5.47;;;;;;;19.86;69.62;99751.97;5090162;28;20396;-22
2021/06/20 02:00:43;;;;;;;11.25;6.18;;;;;;;19.98;69.32;99744.25;5090170;28;20036;-22
2021/06/20 02:03:10;;;;;;;14.55;6.47;;;;;;;19.83;70.11;99749.81;5090018;28;20395;-22
2021/06/20 02:05:36;;;;;;;12.68;6.10;;;;;;;19.91;70.21;99754.59;5090021;28;20107;-22
2021/06/20 02:08:01;;;;;;;10.38;5.72;;;;;;;19.74;71.17;99762.38;5089970;28;20552;-22
2021/06/20 02:10:27;;;;;;;11.88;5.90;;;;;;;19.72;71.51;99773.50;5089890;28;20031;-22
2021/06/20 02:12:52;;;;;;;10.38;5.30;;;;;;;19.64;71.59;99766.75;5089953;28;20030;-22
2021/06/20 02:15:18;;;;;;;10.63;5.65;;;;;;;19.65;71.75;99765.66;5089734;28;20085;-22
2021/06/20 02:17:44;;;;;;;10.73;5.32;;;;;;;19.74;70.92;99760.47;5089729;28;20060;-23
2021/06/20 02:20:11;;;;;;;12.73;5.43;;;;;;;19.77;71.24;99762.59;5090037;28;20024;-22
2021/06/20 02:22:38;;;;;;;9.33;5.57;;;;;;;20.05;69.96;99768.25;5072022;28;20035;-22
2021/06/20 02:25:04;;;;;;;11.03;5.47;;;;;;;20.15;69.79;99772.75;5090077;28;20043;-22
2021/06/20 02:27:30;;;;;;;20.10;6.35;;;;;;;20.17;70.07;99762.44;5090058;28;20266;-22
2021/06/20 02:29:55;;;;;;;14.50;5.85;;;;;;;20.07;69.36;99747.09;5088462;28;20036;-22
2021/06/20 02:32:21;;;;;;;8.77;5.45;;;;;;;20.19;69.42;99765.66;5089239;28;20028;-22
2021/06/20 02:34:47;;;;;;;11.10;5.80;;;;;;;20.23;69.18;99772.09;5071431;28;20032;-22
2021/06/20 02:37:12;;;;;;;12.48;6.30;;;;;;;20.10;69.47;99759.25;5089363;28;20032;-22
2021/06/20 02:39:38;;;;;;;15.05;6.43;;;;;;;20.30;68.83;99777.94;5089634;28;20116;-22
2021/06/20 02:42:04;;;;;;;12.70;5.93;;;;;;;20.13;69.43;99772.22;5089142;28;20055;-22
2021/06/20 02:44:30;;;;;;;13.07;5.80;;;;;;;20.40;68.54;99777.81;5089300;28;20157;-22
2021/06/20 02:46:58;;;;;;;10.32;5.93;;;;;;;20.30;68.69;99775.25;5089113;28;20035;-22
2021/06/20 02:49:23;;;;;;;;;;;;;;;20.37;68.66;99783.81;5090003;28;20024;-23
2021/06/20 02:51:49;;;;;;;11.95;5.90;;;;;;;20.18;68.86;99781.06;5089100;28;19908;-22
2021/06/20 02:54:14;;;;;;;13.77;6.43;;;;;;;20.43;67.56;99771.81;5070867;28;20055;-22
2021/06/20 02:56:40;;;;;;;13.05;6.20;;;;;;;20.34;68.16;99795.22;5071041;28;20118;-23
2021/06/20 02:59:05;;;;;;;11.75;6.22;;;;;;;19.64;70.56;99777.59;5070988;28;20028;-22
2021/06/20 03:01:31;;;;;;;12.45;6.10;;;;;;;19.47;71.17;99777.19;5070530;28;20025;-22
2021/06/20 03:03:57;;;;;;;10.30;5.85;;;;;;;19.63;70.40;99772.44;5088894;28;20097;-23
2021/06/20 03:06:22;;;;;;;11.65;6.47;;;;;;;20.04;68.93;99790.97;5088807;28;20479;-22
2021/06/20 03:08:48;;;;;;;12.50;5.43;;;;;;;19.87;69.49;99780.63;5089247;28;20172;-22
2021/06/20 03:11:13;;;;;;;10.70;6.30;;;;;;;19.92;69.26;99791.41;5088845;28;20488;-22
2021/06/20 03:13:39;;;;;;;17.13;6.53;;;;;;;20.11;68.46;99796.06;5088898;28;20076;-22
2021/06/20 03:16:04;;;;;;;17.10;6.10;;;;;;;19.87;69.43;99803.06;5088913;28;20040;-23
2021/06/20 03:18:31;;;;;;;13.45;6.20;;;;;;;20.22;67.77;99800.25;5088366;28;20083;-22
2021/06/20 03:20:56;;;;;;;11.68;5.93;;;;;;;20.33;67.00;99795.50;5088686;28;20528;-22
2021/06/20 03:23:22;;;;;;;14.60;6.00;;;;;;;20.15;67.25;99781.66;5088571;28;20073;-22
2021/06/20 03:25:47;;;;;;;13.18;5.95;;;;;;;19.41;70.10;99779.16;5088727;28;20029;-22
2021/06/20 03:28:13;;;;;;;13.68;7.22;;;;;;;19.70;69.87;99793.78;5088306;28;20060;-22
2021/06/20 03:30:38;;;;;;;18.90;7.07;;;;;;;19.84;69.37;99800.97;5088380;28;20051;-22
2021/06/20 03:33:04;;;;;;;12.48;6.22;;;;;;;19.98;68.84;99798.38;5088514;28;20411;-22
2021/06/20 03:35:29;;;;;;;15.68;6.47;;;;;;;20.01;68.48;99805.91;5088789;28;20034;-22
2021/06/20 03:37:55;;;;;;;9.63;6.30;;;;;;;20.09;67.83;99803.69;5088488;28;20697;-22
2021/06/20 03:40:21;;;;;;;11.80;5.97;;;;;;;20.20;67.30;99810.56;5088374;28;20043;-23
2021/06/20 03:42:46;;;;;;;12.60;6.45;;;;;;;19.88;68.26;99809.31;5088254;28;20038;-22
2021/06/20 03:45:12;;;;;;;18.00;7.28;;;;;;;19.64;69.61;99793.03;5088495;28;20024;-22
2021/06/20 03:47:37;;;;;;;13.23;6.40;;;;;;;19.82;69.25;99805.06;5088295;28;20403;-22
2021/06/20 03:50:04;;;;;;;14.25;6.43;;;;;;;19.56;70.26;99801.75;5069801;28;20119;-22
2021/06/20 03:52:29;;;;;;;12.38;7.03;;;;;;;19.36;70.66;99808.13;5088307;28;20036;-22
2021/06/20 03:54:55;;;;;;;17.38;7.18;;;;;;;19.18;71.55;99817.75;5087929;28;20032;-22
2021/06/20 03:57:21;;;;;;;15.27;7.00;;;;;;;19.53;70.22;99805.00;5087926;28;20085;-23
2021/06/20 03:59:47;;;;;;;16.60;8.27;;;;;;;19.88;69.33;99820.13;5087899;28;20062;-22
2021/06/20 04:02:12;;;;;;;14.35;7.32;;;;;;;20.20;68.21;99821.41;5087829;28;20035;-22
2021/06/20 04:04:40;;;;;;;18.50;7.38;;;;;;;20.25;67.80;99816.72;5088058;28;20097;-22
2021/06/20 04:07:06;;;;;;;12.88;6.90;;;;;;;20.03;68.83;99817.25;5087832;28;20460;-22
2021/06/20 04:09:32;;;;;;;18.73;7.57;;;;;;;20.19;68.61;99836.03;5088058;28;20043;-22
2021/06/20 04:11:57;;;;;;;10.18;6.15;;;;;;;19.78;68.93;99817.53;5087820;28;20032;-22
2021/06/20 04:14:23;;;;;;;16.40;7.28;;;;;;;20.04;69.21;99832.41;5087543;28;20028;-23
2021/06/20 04:16:48;;;;;;;15.70;7.95;;;;;;;19.99;69.69;99823.53;5087862;28;20040;-22
2021/06/20 04:19:14;;;;;;;11.95;8.15;;;;;;;19.82;70.71;99821.28;5087629;28;20424;-22
2021/06/20 04:21:39;;;;;;;14.13;8.77;;;;;;;19.60;71.58;99814.41;5087658;28;20632;-22
2021/06/20 04:24:05;;;;;;;13.88;8.80;;;;;;;19.61;71.61;99809.81;5087755;28;20035;-22
2021/06/20 04:26:30;;;;;;;16.00;8.38;;;;;;;19.68;71.50;99821.91;5088092;28;20389;-22
2021/06/20 04:28:56;;;;;;;15.38;8.55;;;;;;;19.60;72.25;99813.63;5087877;28;20063;-22
2021/06/20 04:31:21;;;;;;;10.55;7.13;;;;;;;19.55;71.31;99821.75;5087762;28;20028;-22
2021/06/20 04:33:47;;;;;;;11.48;7.18;;;;;;;19.65;70.95;99817.06;5087688;28;20032;-22
2021/06/20 04:36:12;;;;;;;14.68;6.53;;;;;;;19.94;69.03;99823.56;5087404;28;20403;-23
2021/06/20 04:38:38;;;;;;;11.43;6.82;;;;;;;20.24;67.71;99819.72;5087698;28;20119;-22
2021/06/20 04:41:06;;;;;;;15.57;7.18;;;;;;;20.10;67.07;99821.50;5069558;28;20024;-22
2021/06/20 04:43:56;;;;;;;15.30;9.52;;;;;;;19.85;67.42;99823.41;5087564;28;20043;-22
2021/06/20 04:46:48;;;;;;;12.13;7.78;;;;;;;19.43;68.99;99814.00;5087397;28;20452;-22
2021/06/20 04:49:14;;;;;;;10.68;5.75;;;;;;;19.29;70.42;99803.06;5083123;28;20043;-22
2021/06/20 04:51:40;;;;;;;12.57;5.93;;;;;;;19.50;70.22;99819.91;5087687;28;20458;-22
2021/06/20 04:54:06;;;;;;;8.52;5.38;;;;;;;19.33;69.58;99814.09;5089326;28;20027;-22
2021/06/20 04:56:32;;;;;;;7.68;4.70;;;;;;;19.35;69.77;99817.31;5073403;28;20115;-22
2021/06/20 04:58:57;;;;;;;9.18;4.80;;;;;;;19.45;69.19;99814.53;5091405;28;20107;-22
2021/06/20 05:01:23;;;;;;;10.98;4.75;;;;;;;19.53;68.82;99797.69;5091299;28;20028;-22
2021/06/20 05:03:49;;;;;;;13.25;7.25;;;;;;;19.83;68.65;99825.59;5091237;28;20484;-22
2021/06/20 05:06:15;;;;;;;26.15;13.98;;;;;;;20.53;66.71;99813.41;5090840;28;20032;-22
2021/06/20 05:08:40;;;;;;;18.80;10.13;;;;;;;20.19;67.63;99803.56;5091478;28;20036;-22
2021/06/20 05:11:06;;;;;;;19.15;9.88;;;;;;;20.76;66.48;99823.44;5091184;28;20027;-22
2021/06/20 05:13:31;;;;;;;38.08;21.52;;;;;;;21.00;65.93;99811.69;5091060;28;20032;-23
2021/06/20 05:15:57;;;;;;;8.30;5.03;;;;;;;21.12;62.89;99814.75;5091207;28;20576;-22
2021/06/20 05:18:22;;;;;;;8.82;5.22;;;;;;;20.64;66.01;99812.22;5090705;28;20052;-22
2021/06/20 05:20:48;;;;;;;7.38;4.57;;;;;;;21.01;64.65;99818.72;5090989;28;20036;-22
2021/06/20 05:23:13;;;;;;;25.00;13.88;;;;;;;21.37;62.73;99812.72;5090987;28;20077;-22
2021/06/20 05:25:39;;;;;;;4.93;3.75;;;;;;;21.39;63.32;99814.06;5091395;28;20032;-22
2021/06/20 05:28:04;;;;;;;4.72;3.50;;;;;;;21.01;63.36;99814.09;5090770;28;20036;-22
2021/06/20 05:30:30;;;;;;;7.15;3.60;;;;;;;20.76;64.40;99823.44;5090834;28;20036;-22
2021/06/20 05:32:56;;;;;;;6.18;3.53;;;;;;;20.71;64.15;99815.34;5072820;28;20476;-22
2021/06/20 05:35:21;;;;;;;8.65;3.85;;;;;;;20.65;64.14;99800.25;5072743;28;20024;-22
2021/06/20 05:37:47;;;;;;;8.32;4.47;;;;;;;20.58;64.19;99816.06;5090900;28;20052;-22
2021/06/20 05:40:13;;;;;;;5.15;3.42;;;;;;;20.17;65.38;99790.28;5090405;28;20491;-22
2021/06/20 05:42:39;;;;;;;4.95;3.47;;;;;;;20.57;64.38;99804.41;5090376;28;20055;-22
2021/06/20 05:45:05;;;;;;;5.70;3.50;;;;;;;20.48;64.44;99811.56;5072557;28;20028;-22
2021/06/20 05:47:30;;;;;;;7.13;3.55;;;;;;;20.78;64.17;99788.72;5090762;28;20055;-22
2021/06/20 05:49:56;;;;;;;8.65;3.70;;;;;;;20.96;63.08;99789.78;5090442;28;20040;-22
2021/06/20 05:52:21;;;;;;;4.63;3.40;;;;;;;21.15;62.72;99797.09;5071946;28;20061;-23
2021/06/20 05:54:50;;;;;;;6.32;3.28;;;;;;;21.31;62.39;99813.91;5090407;28;20380;-23
2021/06/20 05:57:22;;;;;;;5.28;3.30;;;;;;;21.43;62.65;99814.28;5090163;28;20040;-22
2021/06/20 05:59:47;;;;;;;5.50;3.50;;;;;;;21.46;62.36;99810.97;5090459;28;20115;-24
2021/06/20 06:02:13;;;;;;;10.55;4.20;;;;;;;21.39;62.04;99819.47;5089944;28;20028;-22
2021/06/20 06:04:38;;;;;;;5.32;3.45;;;;;;;21.02;61.86;99821.16;5071843;28;20031;-22
2021/06/20 06:07:04;;;;;;;7.50;3.45;;;;;;;21.11;62.45;99821.28;5071950;28;20415;-22
2021/06/20 06:09:30;;;;;;;5.88;3.78;;;;;;;21.40;62.22;99820.28;5072078;28;20055;-22
2021/06/20 06:11:56;;;;;;;6.40;3.60;;;;;;;21.41;61.77;99824.59;5089842;28;20032;-23
2021/06/20 06:14:22;;;;;;;4.82;3.42;;;;;;;21.33;61.38;99812.53;5089843;28;20795;-22
2021/06/20 06:16:47;;;;;;;11.90;3.70;;;;;;;21.40;61.76;99815.66;5089966;28;20036;-24
2021/06/20 06:19:13;;;;;;;5.05;3.22;;;;;;;21.18;61.68;99800.00;5089829;28;20091;-22
2021/06/20 06:21:38;;;;;;;9.40;3.53;;;;;;;21.51;61.65;99816.31;5089995;28;20069;-22
2021/06/20 06:24:05;;;;;;;7.07;3.50;;;;;;;21.55;61.14;99806.47;5089618;28;20035;-22
2021/06/20 06:26:30;;;;;;;8.65;4.00;;;;;;;21.56;60.89;99797.25;5071580;28;20028;-22
2021/06/20 06:28:56;;;;;;;5.28;4.22;;;;;;;21.39;61.59;99807.81;5089593;28;20040;-22
2021/06/20 06:31:21;;;;;;;7.68;4.30;;;;;;;21.55;61.26;99801.03;5089658;28;20097;-22
2021/06/20 06:33:47;;;;;;;8.40;4.05;;;;;;;21.54;60.68;99809.50;5071835;28;20031;-22
2021/06/20 06:36:12;;;;;;;7.45;4.05;;;;;;;21.69;60.12;99811.13;5089434;28;20483;-22
2021/06/20 06:38:37;;;;;;;8.95;6.72;;;;;;;21.65;61.31;99811.72;5089900;28;20036;-24
2021/06/20 06:41:03;;;;;;;8.27;6.82;;;;;;;21.54;61.56;99794.03;5089585;28;20396;-22
2021/06/20 06:43:29;;;;;;;8.27;5.20;;;;;;;21.82;60.97;99804.91;5089557;28;20036;-22
2021/06/20 06:45:55;;;;;;;9.07;4.90;;;;;;;21.90;61.03;99784.41;5089360;28;20039;-22
2021/06/20 06:48:21;;;;;;;8.02;4.30;;;;;;;22.23;59.96;99787.81;5088983;28;20036;-22
2021/06/20 06:50:46;;;;;;;6.95;4.57;;;;;;;22.40;59.16;99798.91;5089425;28;20385;-22
2021/06/20 06:53:12;;;;;;;8.63;4.78;;;;;;;22.57;59.35;99797.44;5089263;28;20044;-22
2021/06/20 06:55:37;;;;;;;8.18;4.28;;;;;;;22.72;58.56;99793.59;5089187;28;20466;-23
2021/06/20 06:58:03;;;;;;;7.15;4.15;;;;;;;22.82;58.43;99798.78;5089356;28;20036;-22
2021/06/20 07:00:29;;;;;;;7.82;4.72;;;;;;;22.92;58.54;99797.75;5089376;28;20066;-22
2021/06/20 07:02:54;;;;;;;9.32;4.60;;;;;;;22.88;58.66;99794.84;5088873;28;20396;-22
2021/06/20 07:05:20;;;;;;;8.80;4.28;;;;;;;22.82;58.65;99798.78;5070647;28;20047;-22
2021/06/20 07:07:46;;;;;;;9.52;4.30;;;;;;;22.99;58.48;99784.53;5088691;28;20036;-22
2021/06/20 07:10:12;;;;;;;6.15;4.38;;;;;;;23.35;59.90;99795.34;5088458;28;20028;-23
2021/06/20 07:12:37;;;;;;;15.02;4.57;;;;;;;23.60;57.36;99788.47;5088935;28;20403;-22
2021/06/20 07:15:05;;;;;;;12.90;5.22;;;;;;;23.47;57.16;99771.09;5088723;28;20035;-22
2021/06/20 07:17:33;;;;;;;7.80;4.65;;;;;;;23.84;55.95;99782.69;5087948;28;20044;-22
2021/06/20 07:19:59;;;;;;;9.55;4.70;;;;;;;23.70;55.24;99764.81;5088688;28;20032;-22
2021/06/20 07:22:25;;;;;;;9.90;4.80;;;;;;;24.03;55.26;99789.81;5088598;28;20035;-22
2021/06/20 07:24:50;;;;;;;9.35;4.70;;;;;;;24.06;54.65;99792.69;5088502;28;20805;-22
2021/06/20 07:27:16;;;;;;;8.30;5.22;;;;;;;24.18;54.43;99794.81;5088744;28;20067;-22
2021/06/20 07:29:42;;;;;;;7.68;3.97;;;;;;;24.40;53.73;99784.94;5070608;28;20027;-22
2021/06/20 07:32:07;;;;;;;12.77;4.05;;;;;;;24.53;54.85;99788.66;5088340;28;20399;-22
2021/06/20 07:34:33;;;;;;;5.78;2.55;;;;;;;24.85;52.97;99795.56;5088485;28;20058;-22
2021/06/20 07:36:59;;;;;;;7.25;3.10;;;;;;;24.96;52.33;99796.84;5088582;28;20495;-22
2021/06/20 07:39:24;;;;;;;6.90;2.95;;;;;;;24.93;52.74;99791.22;5088364;28;20055;-22
2021/06/20 07:41:50;;;;;;;6.68;2.90;;;;;;;24.40;52.46;99784.94;5088311;28;20035;-23
2021/06/20 07:44:15;;;;;;;6.90;2.75;;;;;;;24.67;51.87;99773.75;5088507;28;20537;-22
2021/06/20 07:46:41;;;;;;;4.75;2.55;;;;;;;24.46;51.21;99784.44;5088500;28;20311;-22
2021/06/20 07:49:07;;;;;;;5.65;2.70;;;;;;;24.56;53.30;99783.38;5088203;28;20028;-22
2021/06/20 07:51:32;;;;;;;3.83;2.38;;;;;;;24.52;50.35;99776.13;5070268;28;20032;-21
2021/06/20 07:53:57;;;;;;;4.82;2.33;;;;;;;24.74;50.67;99769.72;5070068;28;20024;-22
2021/06/20 07:56:23;;;;;;;8.75;2.78;;;;;;;24.77;53.34;99780.00;5088196;28;20407;-22
2021/06/20 07:58:48;;;;;;;6.40;2.70;;;;;;;24.96;52.30;99779.69;5088284;28;20172;-22
2021/06/20 08:01:14;;;;;;;6.65;3.17;;;;;;;24.83;49.99;99779.53;5088219;28;20036;-22
2021/06/20 08:03:39;;;;;;;18.15;5.43;;;;;;;24.99;50.73;99781.78;5088214;28;20476;-22
2021/06/20 08:06:05;;;;;;;8.18;3.05;;;;;;;25.02;49.17;99778.38;5088290;28;20058;-22
2021/06/20 08:08:30;;;;;;;9.60;3.35;;;;;;;24.98;48.68;99782.88;5088006;28;20048;-22
2021/06/20 08:10:57;;;;;;;5.78;2.28;;;;;;;25.19;49.05;99783.00;5088122;28;20036;-22
2021/06/20 08:13:23;;;;;;;1.80;1.50;;;;;;;25.35;46.93;99780.59;5088401;28;20063;-22
2021/06/20 08:15:48;;;;;;;3.25;1.95;;;;;;;25.76;48.27;99774.53;5088109;28;20075;-22
2021/06/20 08:18:14;;;;;;;2.58;1.60;;;;;;;25.81;44.92;99776.28;5087556;28;20667;-23
2021/06/20 08:20:39;;;;;;;2.10;1.67;;;;;;;25.88;46.64;99775.78;5088325;28;20024;-22
2021/06/20 08:23:05;;;;;;;7.38;2.90;;;;;;;26.01;47.13;99775.59;5087870;28;20250;-22
2021/06/20 08:25:30;;;;;;;4.30;2.13;;;;;;;26.28;45.85;99769.97;5088012;28;20039;-22
2021/06/20 08:27:56;;;;;;;2.58;1.80;;;;;;;26.68;44.89;99780.47;5088400;28;20047;-22
2021/06/20 08:30:22;;;;;;;3.30;1.60;;;;;;;26.07;46.48;99757.03;5091834;28;20093;-22
2021/06/20 08:32:47;;;;;;;2.75;1.73;;;;;;;26.56;45.20;99778.44;5091856;28;20032;-22
2021/06/20 08:35:16;;;;;;;4.28;1.77;;;;;;;26.91;44.89;99773.53;5092146;28;20145;-22
2021/06/20 08:37:41;;;;;;;5.22;1.60;;;;;;;27.11;43.93;99768.34;5091798;28;20446;-21
2021/06/20 08:40:07;;;;;;;2.42;1.52;;;;;;;27.18;42.18;99763.13;5091923;28;20039;-22
2021/06/20 08:42:33;;;;;;;1.92;1.60;;;;;;;26.69;42.33;99755.53;5091830;28;20480;-21
2021/06/20 08:44:58;;;;;;;1.63;1.40;;;;;;;26.32;42.02;99776.38;5091775;28;20028;-22
2021/06/20 08:47:23;;;;;;;11.50;4.63;;;;;;;26.18;42.86;99768.41;5091728;28;20028;-22
2021/06/20 08:49:49;;;;;;;3.80;1.67;;;;;;;26.43;42.04;99767.44;5073630;28;20086;-22
2021/06/20 08:52:14;;;;;;;4.30;1.80;;;;;;;26.76;41.00;99766.72;5091319;28;20032;-22
2021/06/20 08:55:00;;;;;;;2.88;1.88;;;;;;;27.15;42.66;99770.06;5091729;28;20399;-22
2021/06/20 08:57:26;;;;;;;3.50;1.45;;;;;;;27.21;40.11;99776.91;5091662;28;20101;-24
2021/06/20 08:59:51;;;;;;;3.03;1.50;;;;;;;27.20;42.80;99767.13;5091835;28;20032;-22
2021/06/20 09:02:23;;;;;;;2.35;1.38;;;;;;;27.65;41.71;99769.06;5091323;28;20027;-22
2021/06/20 09:04:54;;;;;;;2.53;1.50;;;;;;;26.92;45.41;99757.91;5091412;28;20035;-22
2021/06/20 09:07:47;;;;;;;3.20;1.60;;;;;;;26.72;41.78;99765.00;5091526;28;20032;-22
2021/06/20 09:10:15;;;;;;;2.80;1.25;;;;;;;26.24;40.47;99753.44;5090663;28;20565;-22
2021/06/20 09:12:46;;;;;;;1.50;1.35;;;;;;;26.35;42.91;99762.03;5089540;28;20111;-21
2021/06/20 09:15:13;;;;;;;3.38;1.83;;;;;;;26.24;40.74;99756.16;5090674;28;20419;-22
2021/06/20 09:17:38;;;;;;;2.42;1.13;;;;;;;26.12;40.93;99767.78;5090866;28;20054;-22
2021/06/20 09:20:05;;;;;;;3.17;1.30;;;;;;;26.22;41.79;99755.69;5090865;28;20024;-22
2021/06/20 09:22:30;;;;;;;2.45;1.83;;;;;;;26.60;41.07;99755.59;5090643;28;20082;-22
2021/06/20 09:24:59;;;;;;;5.05;2.38;;;;;;;26.38;41.68;99762.19;5090961;28;20070;-22
2021/06/20 09:27:24;;;;;;;4.15;1.77;;;;;;;26.46;41.31;99752.31;5090623;28;20523;-21
2021/06/20 09:29:50;;;;;;;11.73;6.78;;;;;;;26.82;40.84;99754.44;5090701;28;20036;-22
2021/06/20 09:32:15;;;;;;;7.57;4.57;;;;;;;27.17;40.47;99747.84;5072461;28;20036;-22
2021/06/20 09:34:44;;;;;;;10.60;4.43;;;;;;;27.21;39.38;99767.91;5055952;28;20035;-22
2021/06/20 09:37:10;;;;;;;7.00;3.58;;;;;;;27.32;40.40;99765.56;5090640;28;20028;-22
2021/06/20 09:39:35;;;;;;;42.20;26.55;;;;;;;27.16;40.36;99758.00;5090380;28;20023;-22
2021/06/20 09:42:04;;;;;;;40.83;20.35;;;;;;;27.05;41.13;99759.53;5090596;28;20064;-22
2021/06/20 09:44:40;;;;;;;2.67;1.77;;;;;;;27.20;40.23;99761.66;5090782;28;20093;-22
2021/06/20 09:47:07;;;;;;;22.17;12.25;;;;;;;27.30;40.33;99757.72;5090970;28;20044;-22
2021/06/20 09:49:33;;;;;;;4.07;2.13;;;;;;;27.59;41.29;99742.25;5091096;28;20206;-22
2021/06/20 09:51:58;;;;;;;14.85;6.32;;;;;;;27.82;39.17;99754.34;5090405;28;21123;-21
2021/06/20 09:54:32;;;;;;;8.20;3.65;;;;;;;27.78;38.40;99738.94;5072132;28;20032;-21
2021/06/20 09:56:57;;;;;;;14.75;7.47;;;;;;;27.92;38.83;99747.63;5090255;28;20085;-22
2021/06/20 09:59:27;;;;;;;33.20;14.45;;;;;;;27.86;39.69;99727.06;5090705;28;20031;-24
2021/06/20 10:01:53;;;;;;;2.55;1.45;;;;;;;27.74;37.94;99754.47;5090461;28;20059;-22
2021/06/20 10:04:18;;;;;;;4.50;1.50;;;;;;;28.02;37.15;99733.47;5090140;28;20085;-23
2021/06/20 10:06:44;;;;;;;4.47;1.40;;;;;;;27.75;38.04;99745.13;5090279;28;20034;-23
2021/06/20 10:09:09;;;;;;;3.17;1.60;;;;;;;28.03;37.88;99729.59;5072347;28;20044;-22
2021/06/20 10:11:35;;;;;;;3.03;1.40;;;;;;;27.83;38.21;99734.03;5090398;28;20257;-21
2021/06/20 10:14:00;;;;;;;4.00;1.77;;;;;;;27.74;40.15;99732.53;5090034;28;20454;-22
2021/06/20 10:16:35;;;;;;;1.90;1.10;;;;;;;27.33;40.29;99726.13;5090015;28;20071;-22
2021/06/20 10:19:04;;;;;;;2.55;1.50;;;;;;;27.51;40.36;99733.00;5089829;28;20499;-22
2021/06/20 10:21:35;;;;;;;3.55;1.60;;;;;;;27.72;41.03;99724.66;5089925;28;20028;-22
2021/06/20 10:24:17;;;;;;;1.90;1.55;;;;;;;27.46;41.19;99727.72;5089680;28;20111;-22
2021/06/20 10:26:56;;;;;;;1.80;1.13;;;;;;;27.30;43.92;99722.13;5089345;28;20035;-22
2021/06/20 10:29:23;;;;;;;6.05;2.03;;;;;;;27.47;40.77;99718.38;5089116;28;20081;-22
2021/06/20 10:31:50;;;;;;;3.72;1.48;;;;;;;27.02;42.24;99691.81;5089271;28;20499;-22
2021/06/20 10:34:16;;;;;;;4.50;1.70;;;;;;;27.35;40.89;99710.16;5088560;28;20488;-22
2021/06/20 10:36:53;;;;;;;6.85;2.10;;;;;;;27.46;39.97;99716.75;5071450;28;20036;-22
2021/06/20 10:39:18;;;;;;;5.40;1.85;;;;;;;27.52;41.69;99731.03;5089885;28;20040;-22
2021/06/20 10:41:44;;;;;;;6.65;1.60;;;;;;;27.54;40.82;99709.59;5089384;28;20561;-23
2021/06/20 10:44:09;;;;;;;3.35;1.77;;;;;;;27.81;41.26;99717.13;5089667;28;20494;-21
2021/06/20 10:46:36;;;;;;;2.75;1.70;;;;;;;28.01;40.50;99711.88;5089593;28;20815;-22
2021/06/20 10:49:15;;;;;;;4.50;1.98;;;;;;;28.04;39.79;99713.94;5089539;28;20082;-22
2021/06/20 10:51:41;;;;;;;7.28;1.77;;;;;;;28.39;39.44;99713.41;5054169;28;20036;-22
2021/06/20 10:54:06;;;;;;;1.92;1.35;;;;;;;28.74;39.96;99708.16;5089051;28;20095;-22
2021/06/20 10:56:32;;;;;;;5.20;1.70;;;;;;;29.06;38.56;99716.47;5070992;28;20024;-22
2021/06/20 10:58:59;;;;;;;1.88;1.38;;;;;;;28.65;39.38;99699.28;5089257;28;20483;-22
2021/06/20 11:01:27;;;;;;;1.60;1.40;;;;;;;28.60;39.62;99711.28;5089039;28;20411;-22
2021/06/20 11:03:52;;;;;;;3.83;1.40;;;;;;;28.56;38.28;99706.88;5089312;28;20571;-22
2021/06/20 11:06:22;;;;;;;2.92;1.60;;;;;;;28.51;41.20;99698.91;5088925;28;20039;-22
2021/06/20 11:09:03;;;;;;;2.42;1.40;;;;;;;28.14;41.45;99696.22;5088898;28;20031;-22
2021/06/20 11:11:33;;;;;;;2.33;1.55;;;;;;;27.55;43.44;99681.06;5071156;28;20028;-23
2021/06/20 11:13:59;;;;;;;1.92;1.48;;;;;;;27.31;42.06;99695.53;5088821;28;20459;-21
2021/06/20 11:16:27;;;;;;;2.72;1.55;;;;;;;26.70;43.64;99685.22;5088748;28;20552;-22
2021/06/20 11:19:08;;;;;;;1.77;1.38;;;;;;;26.81;43.13;99695.41;5088906;28;20113;-22
2021/06/20 11:21:34;;;;;;;2.13;1.60;;;;;;;26.64;41.86;99679.97;5088701;28;20032;-22
2021/06/20 11:23:59;;;;;;;3.35;1.88;;;;;;;26.76;42.80;99673.72;5088724;28;20082;-22
2021/06/20 11:26:25;;;;;;;2.00;1.60;;;;;;;27.00;41.64;99683.94;5088512;28;20039;-22